Nearby METAR Reports

 

KSJC - San Jose, California, USA
Distance from station: NE 14km
Updated: 25/10/2021 08:53
Mostly cloudy
Mostly cloudy
 Wind from WNW
Wind: WNW 11 km/h
Temperature: 14°C
Dew Point: 11°C
Humidity: 82%
Barometer: 1007.8 hPa
Clouds: Mostly cloudy
Visibility: 16 km
Cloud details: Few Clouds 366 m
Partly cloudy 762 m
Mostly cloudy 1433 m
2021/10/25 15:53 KSJC 251553Z 29006KT 10SM FEW012 SCT025 BKN047 14/11 A2976 RMK AO2 RAB1457E40 SLP076 TCU DSNT W AND NW P0005 T01390111
KNUQ - Moffett Nas/Mtn, California, USA
Distance from station: N 14km
Updated: 22/10/2021 02:15
NOT Current
Overcast
Overcast
 Wind from ESE
Wind: ESE 22 km/h
Temperature: 18°C
Dew Point: 14°C
Humidity: 78%
Barometer: 1015.6 hPa
Clouds: Overcast
Visibility: 16 km
Cloud details: Few Clouds 671 m
Overcast 914 m
2021/10/22 09:15 KNUQ 220915Z AUTO 11012KT 10SM FEW022 OVC030 18/14 A2999 RMK AO2
 
KPAO - Palo Alto, California, USA
Distance from station: NNW 23km
Updated: 25/10/2021 08:47
Partly cloudy
Partly cloudy
 Wind from W
Wind: W 17 km/h
Temperature: 14°C
Dew Point: 11°C
Humidity: 82%
Barometer: 1007.5 hPa
Clouds: Partly cloudy
Visibility: 16 km
Cloud details: Few Clouds 762 m
Partly cloudy 1219 m
2021/10/25 15:47 KPAO 251547Z 26009KT 10SM FEW025 SCT040 14/11 A2975
KRHV - San Jose/Reid, California, USA
Distance from station: ENE 19km
Updated: 25/10/2021 08:55
Mostly cloudy
Mostly cloudy
 Wind from calm
Wind: Calm
Temperature: 13°C
Dew Point: 12°C
Humidity: 94%
Barometer: 1008.1 hPa
Clouds: Mostly cloudy
Visibility: 11 km
Cloud details: Few Clouds 305 m
Mostly cloudy 762 m
2021/10/25 15:55 KRHV 251555Z 00000KT 7SM FEW010 BKN025 13/12 A2977
 
KOAK - Oakland, California, USA
Distance from station: NNW 50km
Updated: 25/10/2021 08:53
Mostly cloudy
Mostly cloudy
 Wind from W
Wind: W 24 km/h
Temperature: 15°C
Dew Point: 12°C
Humidity: 82%
Barometer: 1007.1 hPa
Clouds: Mostly cloudy
Visibility: 16 km
Cloud details: Partly cloudy 488 m
Mostly cloudy 671 m
Mostly cloudy 1219 m
Mostly cloudy 3962 m
2021/10/25 15:53 KOAK 251553Z 28013KT 10SM SCT016 BKN022 BKN040 BKN130 15/12 A2974 RMK AO2 SLP071 T01500122
KSQL - San Carlos Airpo, California, USA
Distance from station: NW 34km
Updated: 25/10/2021 08:47
Few Clouds
Few Clouds
 Wind from W
Wind: W 9 km/h
Temperature: 14°C
Dew Point: 11°C
Humidity: 82%
Barometer: 1007.5 hPa
Clouds: Few Clouds
Visibility: 16 km
Cloud details: Few Clouds 3048 m
2021/10/25 15:47 KSQL 251547Z 27005KT 10SM FEW100 14/11 A2975
 
KSFO - San Francisco, California, USA
Distance from station: NW 49km
Updated: 25/10/2021 08:56
Few Clouds
Few Clouds
 Wind from W
Wind: W 22 km/h
Temperature: 15°C
Dew Point: 12°C
Humidity: 82%
Barometer: 1007.1 hPa
Clouds: Few Clouds
Visibility: 14 km
Cloud details: Few Clouds 488 m
Few Clouds 3048 m
2021/10/25 15:56 KSFO 251556Z 28012KT 9SM FEW016 FEW100 15/12 A2974 RMK AO2 SLP070 T01500117
KE16 - San Martin, California, USA
Distance from station: ESE 43km
Updated: 25/10/2021 08:55
Mostly cloudy
Mostly cloudy
 Wind from calm
Wind: Calm
Temperature: 13°C
Dew Point: 12°C
Humidity: 94%
Barometer: 1007.8 hPa
Clouds: Mostly cloudy
Visibility: 16 km
Cloud details: Few Clouds 1006 m
Partly cloudy 1280 m
Mostly cloudy 1463 m
2021/10/25 15:55 KE16 251555Z AUTO 00000KT 10SM FEW033 SCT042 BKN048 13/12 A2976 RMK AO2 PWINO PNO
 
KWVI - Watsonville, California, USA
Distance from station: SSE 44km
Updated: 25/10/2021 09:16
Mostly cloudy
Mostly cloudy
 Wind from W
Wind: W 13 km/h, Gust: 33 km/h
Temperature: 13°C
Dew Point: 13°C
Humidity: 100%
Barometer: 1008.1 hPa
Clouds: Mostly cloudy
Visibility: 14 km
Cloud details: Few Clouds 366 m
Partly cloudy 671 m
Mostly cloudy 1676 m
2021/10/25 16:16 KWVI 251616Z AUTO 27007G18KT 9SM FEW012 SCT022 BKN055 13/13 A2977 RMK AO2 T01330128
KHAF - Half Moon Bay, California, USA
Distance from station: WNW 50km
Updated: 25/10/2021 09:19
unable to load KHAF data RC=
unable to load KHAF data RC=
 
 
KHWD - Hayward, California, USA
Distance from station: N 44km
Updated: 25/10/2021 08:54
Mostly cloudy
Mostly cloudy
 Wind from W
Wind: W 19 km/h
Temperature: 14°C
Dew Point: 12°C
Humidity: 88%
Barometer: 1007.1 hPa
Clouds: Mostly cloudy
Visibility: 16 km
Cloud details: Partly cloudy 549 m
Mostly cloudy 884 m
2021/10/25 15:54 KHWD 251554Z 28010KT 10SM SCT018 BKN029 14/12 A2974 RMK AO2 RAE05 SLP079 P0000 T01390117
KLVK - Livermore, California, USA
Distance from station: NNE 51km
Updated: 25/10/2021 08:53
Mostly cloudy
Mostly cloudy
 Wind from W
Wind: W 24 km/h
Temperature: 13°C
Dew Point: 11°C
Humidity: 88%
Barometer: 1006.4 hPa
Clouds: Mostly cloudy
Visibility: 16 km
Cloud details: Few Clouds 1097 m
Mostly cloudy 1494 m
2021/10/25 15:53 KLVK 251553Z 26013KT 10SM FEW036 BKN049 13/11 A2972 RMK AO2 RAE49 SLP063 P0005 T01280111